createdAt,value
2023-03-06T15:26:01.458Z,98975.28
2023-03-06T15:26:37.216Z,98980.03
2023-03-06T15:27:02.912Z,98979.91
2023-03-06T15:27:33.176Z,98977.53
2023-03-06T15:27:56.595Z,98985.81
2023-03-06T15:28:33.265Z,98980.81
2023-03-06T15:29:12.832Z,98974.81
2023-03-06T15:29:40.314Z,98978.75
2023-03-06T15:30:31.098Z,98970.38
2023-03-06T15:31:22.360Z,98983.19
2023-03-06T15:31:46.303Z,98972.03
2023-03-06T15:32:42.596Z,98975.69
2023-03-06T15:33:27.440Z,98980.13
2023-03-06T15:34:09.977Z,98975.09
2023-03-06T15:34:32.194Z,98979.06
2023-03-06T15:35:28.486Z,98969.72
2023-03-06T15:36:21.151Z,98977.59
2023-03-06T15:37:00.055Z,98982.66
2023-03-06T15:37:36.422Z,98972.63
2023-03-06T15:38:35.592Z,98979.56
2023-03-06T15:39:01.121Z,98977.53
2023-03-06T15:39:32.095Z,98975.63
2023-03-06T15:40:09.477Z,98977.66
2023-03-06T15:40:32.303Z,98974.31
2023-03-06T15:41:00.144Z,98965.03
2023-03-06T15:41:45.310Z,98967.53
2023-03-06T15:42:23.749Z,98970.22
2023-03-06T15:42:46.751Z,98961.72
2023-03-06T15:43:14.183Z,98967.25
2023-03-06T15:43:46.714Z,98966.78
2023-03-06T15:44:13.463Z,98974.38
2023-03-06T15:44:35.277Z,98971.34
2023-03-06T15:45:09.225Z,98976.56
2023-03-06T15:45:32.230Z,98972.94
2023-03-06T15:45:59.739Z,98975.63
2023-03-06T15:46:21.624Z,98973.09
2023-03-06T15:46:47.294Z,98972.47
2023-03-06T15:47:12.283Z,98980.84
2023-03-06T15:47:34.424Z,98969.91
2023-03-06T15:47:56.649Z,98971.81
2023-03-06T15:48:21.145Z,98974.97
2023-03-06T15:48:53.860Z,98972.75
2023-03-06T15:49:18.353Z,98969.75
2023-03-06T15:49:40.778Z,98967.69
2023-03-06T15:50:02.617Z,98968.13
2023-03-06T15:50:27.190Z,98967.03
2023-03-06T15:50:49.084Z,98967.16
2023-03-06T15:51:10.863Z,98968.41
2023-03-06T15:51:33.155Z,98963.53
2023-03-06T15:51:57.139Z,98963.84
2023-03-06T15:52:21.024Z,98959.59
2023-03-06T15:52:44.418Z,98970.44
2023-03-06T15:53:06.245Z,98968.09
2023-03-06T15:53:37.163Z,98963.84
2023-03-06T15:54:12.271Z,98965.09
2023-03-06T15:54:43.124Z,98962.41
2023-03-06T15:55:05.266Z,98963.41
2023-03-06T15:55:27.294Z,98970.31
2023-03-06T15:55:51.192Z,98965.72
2023-03-06T15:56:13.580Z,98968.75
2023-03-06T15:56:53.921Z,98966.69
2023-03-06T15:57:59.778Z,98974.81
2023-03-06T15:58:41.295Z,98971.16
2023-03-06T15:59:43.179Z,98974.00
2023-03-06T16:00:25.315Z,98970.06
2023-03-06T16:00:48.610Z,98972.38
2023-03-06T16:01:17.551Z,98970.59
2023-03-06T16:01:40.756Z,98972.44
2023-03-06T16:02:11.870Z,98973.69
2023-03-06T16:02:33.860Z,98966.41
2023-03-06T16:02:59.199Z,98961.47
2023-03-06T16:03:21.190Z,98971.31
2023-03-06T16:03:43.798Z,98967.50
2023-03-06T16:04:06.729Z,98970.16
2023-03-06T16:04:29.010Z,98967.47
2023-03-06T16:04:51.532Z,98964.31
2023-03-06T16:05:18.792Z,98973.47
2023-03-06T16:05:41.080Z,98965.34
2023-03-06T16:06:03.951Z,98962.78
2023-03-06T16:06:28.240Z,98965.34
2023-03-06T16:06:50.206Z,98970.84
2023-03-06T16:07:20.048Z,98974.50
2023-03-06T16:07:41.864Z,98972.44
2023-03-06T16:08:04.893Z,98966.22
2023-03-06T16:08:26.737Z,98968.91
2023-03-06T16:08:48.598Z,98971.81
2023-03-06T16:09:11.330Z,98968.16
2023-03-06T16:09:33.132Z,98973.34
2023-03-06T16:09:54.971Z,98968.25
2023-03-06T16:10:20.156Z,98971.50
2023-03-06T16:10:43.987Z,98964.22
2023-03-06T16:11:05.815Z,98969.41
2023-03-06T16:11:41.897Z,98965.81
2023-03-06T16:12:06.659Z,98968.50
2023-03-06T16:12:31.001Z,98967.97
2023-03-06T16:12:57.592Z,98970.72
2023-03-06T16:13:22.228Z,98965.56
2023-03-06T16:13:45.901Z,98964.69
2023-03-06T16:14:24.438Z,98968.75
2023-03-06T16:14:47.814Z,98969.31
2023-03-06T16:15:21.786Z,98968.69
2023-03-06T16:15:50.192Z,98969.56
2023-03-06T16:16:19.060Z,98974.31
2023-03-06T16:16:41.442Z,98977.53
2023-03-06T16:17:03.286Z,98977.28
2023-03-06T16:17:25.145Z,98977.59
2023-03-06T16:17:50.683Z,98983.13
2023-03-06T16:18:13.387Z,98975.53
2023-03-06T16:18:35.391Z,98983.25
2023-03-06T16:18:57.545Z,98982.44
2023-03-06T16:19:27.377Z,98981.47
2023-03-06T16:19:49.916Z,98977.66
2023-03-06T16:20:18.820Z,98979.88
2023-03-06T16:20:41.762Z,98970.94
2023-03-06T16:21:03.776Z,98982.91
2023-03-06T16:21:25.709Z,98975.63
2023-03-06T16:21:47.939Z,98974.50
2023-03-06T16:22:09.924Z,98985.59
2023-03-06T16:22:31.683Z,98985.25
2023-03-06T16:22:54.998Z,98975.31
2023-03-06T16:23:16.869Z,98982.38
2023-03-06T16:23:39.644Z,98988.00
2023-03-06T16:24:01.502Z,98978.19
2023-03-06T16:24:25.037Z,98972.66
2023-03-06T16:24:46.893Z,98978.50
2023-03-06T16:25:09.002Z,98974.66
2023-03-06T16:25:31.034Z,98973.06
2023-03-06T16:25:52.812Z,98977.53
2023-03-06T16:26:31.296Z,98970.38
2023-03-06T16:26:56.222Z,98978.25
2023-03-06T16:27:23.651Z,98967.84
2023-03-06T16:28:04.544Z,98972.75
2023-03-06T16:28:28.111Z,98973.22
2023-03-06T16:28:49.931Z,98979.06
2023-03-06T16:29:30.665Z,98967.69
2023-03-06T16:30:18.322Z,98978.63
2023-03-06T16:30:58.718Z,98976.63
2023-03-06T16:31:39.307Z,98976.75
2023-03-06T16:32:22.833Z,98974.50
2023-03-06T16:33:03.707Z,98976.09
2023-03-06T16:33:45.884Z,98977.19
2023-03-06T16:34:28.080Z,98979.50
2023-03-06T16:35:11.044Z,98982.53
2023-03-06T16:35:53.215Z,98979.38
2023-03-06T16:36:35.511Z,98976.50
2023-03-06T16:37:17.661Z,98983.03
2023-03-06T16:38:00.461Z,98979.44
2023-03-06T16:38:42.597Z,98978.91
2023-03-06T16:39:24.974Z,98980.94
2023-03-06T16:40:32.912Z,98977.47
2023-03-06T16:41:17.101Z,98975.72
2023-03-06T16:41:59.208Z,98977.94
2023-03-06T16:42:41.363Z,98983.44
2023-03-06T16:43:23.520Z,98978.84
2023-03-06T16:44:07.901Z,98984.44
2023-03-06T16:44:50.138Z,98979.84
2023-03-06T16:45:37.553Z,98979.06
2023-03-06T16:46:23.921Z,98980.16
2023-03-06T16:47:06.324Z,98977.94
2023-03-06T16:47:49.677Z,98977.81
2023-03-06T16:48:31.902Z,98981.59
2023-03-06T16:49:17.800Z,98978.31
2023-03-06T16:50:02.461Z,98982.84
2023-03-06T16:50:45.433Z,98985.88
2023-03-06T16:51:27.611Z,98976.09
2023-03-06T16:52:11.318Z,98984.94
2023-03-06T16:52:54.749Z,98981.47
2023-03-06T16:53:36.864Z,98986.06
2023-03-06T16:54:19.473Z,98980.22
2023-03-06T16:55:01.637Z,98975.31
2023-03-06T16:55:43.942Z,98979.44
2023-03-06T16:56:25.970Z,98983.56
2023-03-06T16:57:13.853Z,98976.16
2023-03-06T16:57:56.123Z,98985.03
2023-03-06T16:58:39.492Z,98981.19
2023-03-06T16:59:21.763Z,98989.72
2023-03-06T17:00:06.703Z,98984.34
2023-03-06T17:00:48.982Z,98981.31
2023-03-06T17:01:31.228Z,98983.13
2023-03-06T17:02:13.410Z,98987.34
2023-03-06T17:02:55.937Z,98987.22
2023-03-06T17:03:39.457Z,98977.94
2023-03-06T17:04:21.616Z,98983.31
2023-03-06T17:05:05.223Z,98985.31
2023-03-06T17:05:47.384Z,98982.97
2023-03-06T17:06:30.877Z,98976.50
2023-03-06T17:07:13.113Z,98978.53
2023-03-06T17:07:56.227Z,98982.66
2023-03-06T17:08:38.322Z,98982.19
2023-03-06T17:09:20.475Z,98983.78
2023-03-06T17:10:07.321Z,98984.56
2023-03-06T17:10:50.299Z,98983.31
2023-03-06T17:11:32.502Z,98989.00
2023-03-06T17:12:14.623Z,98985.88
2023-03-06T17:12:57.395Z,98990.47
2023-03-06T17:13:40.622Z,98987.31
2023-03-06T17:14:22.789Z,98986.84
2023-03-06T17:15:06.533Z,98989.69
2023-03-06T17:15:59.581Z,98986.34
2023-03-06T17:16:42.723Z,98986.03
2023-03-06T17:17:24.874Z,98981.75
2023-03-06T17:18:07.388Z,98985.56
2023-03-06T17:18:49.999Z,98980.19
2023-03-06T17:19:32.250Z,98987.13
2023-03-06T17:20:15.508Z,98985.22
2023-03-06T17:20:58.732Z,98983.66
2023-03-06T17:21:42.090Z,98986.66
2023-03-06T17:22:24.577Z,98985.56
2023-03-06T17:23:06.674Z,98982.09
2023-03-06T17:23:51.145Z,98986.66
2023-03-06T17:24:33.362Z,98984.16
2023-03-06T17:25:15.516Z,98991.88
2023-03-06T17:26:09.144Z,98983.19
2023-03-06T17:26:51.540Z,98983.50
2023-03-06T17:27:34.783Z,98983.97
2023-03-06T17:28:16.808Z,98979.38
2023-03-06T17:28:59.129Z,98982.97
2023-03-06T17:29:41.237Z,98985.03
2023-03-06T17:30:26.295Z,98988.47
2023-03-06T17:31:13.157Z,98976.63
2023-03-06T17:31:55.736Z,98985.78
2023-03-06T17:32:41.320Z,98984.19
2023-03-06T17:33:24.634Z,98986.09
2023-03-06T17:34:06.954Z,98989.56
2023-03-06T17:34:49.001Z,98981.19
2023-03-06T17:35:31.206Z,98981.66
2023-03-06T17:36:15.119Z,98983.69
2023-03-06T17:36:57.285Z,98979.56
2023-03-06T17:37:39.631Z,98983.69
2023-03-06T17:38:21.782Z,98980.53
2023-03-06T17:39:04.528Z,98985.03
2023-03-06T17:39:47.426Z,98979.97
2023-03-06T17:40:29.902Z,98986.31
2023-03-06T17:41:13.579Z,98988.56
2023-03-06T17:41:58.473Z,98977.81
2023-03-06T17:42:40.556Z,98986.66
2023-03-06T17:43:23.035Z,98981.94
2023-03-06T17:44:05.343Z,98986.19
2023-03-06T17:44:48.433Z,98980.81
2023-03-06T17:45:30.832Z,98982.19
2023-03-06T17:46:13.727Z,98994.63
2023-03-06T17:46:56.403Z,98982.78
2023-03-06T17:47:38.533Z,98986.25
2023-03-06T17:48:20.743Z,98987.03
2023-03-06T17:49:03.270Z,98992.91
2023-03-06T17:49:45.698Z,98988.91
2023-03-06T17:50:28.482Z,98987.91
2023-03-06T17:51:11.634Z,98989.66
2023-03-06T17:51:56.604Z,98991.34
2023-03-06T17:52:39.164Z,98985.22
2023-03-06T17:53:22.176Z,98991.34
2023-03-06T17:54:04.855Z,98990.56
2023-03-06T17:54:46.940Z,98983.19
2023-03-06T17:55:30.175Z,98988.22
2023-03-06T17:56:14.312Z,98980.81
2023-03-06T17:57:01.250Z,98985.88
2023-03-06T17:57:43.682Z,98988.88
2023-03-06T17:58:27.731Z,98990.00
2023-03-06T17:59:10.672Z,98979.84
2023-03-06T17:59:53.273Z,98987.13
2023-03-06T18:00:36.226Z,98993.28
2023-03-06T18:01:27.631Z,98984.78
2023-03-06T18:02:10.942Z,98992.03
2023-03-06T18:02:53.461Z,98994.72
2023-03-06T18:03:38.455Z,98992.84
2023-03-06T18:04:20.802Z,99000.06
2023-03-06T18:05:03.828Z,98996.59
2023-03-06T18:05:46.023Z,99000.41
2023-03-06T18:06:30.748Z,98999.16
2023-03-06T18:07:13.624Z,98997.13
2023-03-06T18:07:55.953Z,98995.53
2023-03-06T18:08:38.947Z,98993.34
2023-03-06T18:09:21.252Z,98993.34
2023-03-06T18:10:04.638Z,98990.19
2023-03-06T18:10:47.824Z,98993.63
2023-03-06T18:11:31.044Z,98994.44
2023-03-06T18:12:17.370Z,98990.34
2023-03-06T18:12:59.624Z,98989.88
2023-03-06T18:13:44.348Z,99000.41
2023-03-06T18:14:37.422Z,99001.19
2023-03-06T18:15:23.461Z,99003.88
2023-03-06T18:16:17.301Z,98998.81
2023-03-06T18:17:00.940Z,98998.03
2023-03-06T18:17:49.182Z,99003.41
2023-03-06T18:18:35.946Z,98997.25
2023-03-06T18:19:19.351Z,98997.25
2023-03-06T18:20:02.501Z,98990.00
2023-03-06T18:20:48.664Z,98993.81
2023-03-06T18:21:33.670Z,98993.81
2023-03-06T18:22:18.753Z,98992.56
2023-03-06T18:23:07.598Z,98985.94
2023-03-06T18:23:51.362Z,98991.31
2023-03-06T18:24:33.524Z,98990.97
2023-03-06T18:25:23.110Z,98991.31
2023-03-06T18:26:21.271Z,98987.06
2023-03-06T18:27:07.830Z,98993.97
2023-03-06T18:28:13.582Z,98990.19
2023-03-06T18:29:04.783Z,98993.50
2023-03-06T18:29:50.119Z,98993.84
2023-03-06T18:30:41.463Z,98991.19
2023-03-06T18:31:42.779Z,98983.56
2023-03-06T18:32:26.832Z,98990.06
2023-03-06T18:33:12.502Z,98996.97
2023-03-06T18:33:59.402Z,98992.44
2023-03-06T18:34:49.790Z,98996.53
2023-03-06T18:35:33.421Z,98995.72
2023-03-06T18:36:17.126Z,98998.41
2023-03-06T18:36:59.282Z,98992.25
2023-03-06T18:37:41.647Z,98989.59
2023-03-06T18:38:23.941Z,98989.91
2023-03-06T18:39:09.789Z,98990.69
2023-03-06T18:39:51.894Z,98993.69
2023-03-06T18:40:37.320Z,98996.38
2023-03-06T18:41:20.479Z,98996.38
2023-03-06T18:42:07.396Z,99000.97
2023-03-06T18:42:50.051Z,98993.69
2023-03-06T18:43:32.370Z,98993.69
2023-03-06T18:44:19.391Z,98990.22
2023-03-06T18:45:04.656Z,98992.44
2023-03-06T18:45:55.314Z,98993.22
2023-03-06T18:46:39.433Z,98992.44
2023-03-06T18:47:21.790Z,98994.34
2023-03-06T18:48:05.920Z,98993.56
2023-03-06T18:48:51.659Z,98986.59
2023-03-06T18:49:33.810Z,99001.63
2023-03-06T18:50:17.794Z,98997.34
2023-03-06T18:51:25.396Z,98998.47
2023-03-06T18:52:09.250Z,98999.25
2023-03-06T18:52:51.334Z,98994.66
2023-03-06T18:53:34.004Z,98996.56
2023-03-06T18:54:16.572Z,99003.84
2023-03-06T18:55:00.813Z,98995.31
2023-03-06T18:55:53.698Z,99003.38
2023-03-06T18:56:36.052Z,98999.31
2023-03-06T18:57:18.399Z,98998.97
2023-03-06T18:58:00.469Z,99000.88
2023-03-06T18:58:43.582Z,99002.78
2023-03-06T18:59:26.528Z,98997.41
2023-03-06T19:00:08.868Z,99000.88
2023-03-06T19:00:51.434Z,98992.81
2023-03-06T19:01:34.816Z,98997.41
2023-03-06T19:02:17.101Z,99001.66
2023-03-06T19:03:01.636Z,98997.72
2023-03-06T19:03:44.448Z,99003.06
2023-03-06T19:04:27.365Z,99001.22
2023-03-06T19:05:09.644Z,99009.69
2023-03-06T19:05:51.775Z,99006.22
2023-03-06T19:06:33.979Z,98996.28
2023-03-06T19:07:16.343Z,99001.66
2023-03-06T19:07:59.092Z,99004.66
2023-03-06T19:08:41.497Z,99003.88
2023-03-06T19:09:23.966Z,99007.66
2023-03-06T19:10:09.526Z,99004.66
2023-03-06T19:10:54.875Z,99013.50
2023-03-06T19:11:40.356Z,99014.63
2023-03-06T19:12:32.957Z,99002.00
2023-03-06T19:13:16.061Z,99002.78
2023-03-06T19:13:58.497Z,99002.00
2023-03-06T19:14:40.579Z,99003.41
2023-03-06T19:15:22.706Z,99003.72
2023-03-06T19:16:05.634Z,99004.53
2023-03-06T19:16:50.881Z,99006.88
2023-03-06T19:17:33.525Z,99009.44
2023-03-06T19:18:19.228Z,99001.38
2023-03-06T19:19:01.488Z,99004.06
2023-03-06T19:19:44.150Z,99005.63
2023-03-06T19:20:27.095Z,99000.25
2023-03-06T19:21:15.274Z,99000.25
2023-03-06T19:21:58.978Z,99000.25
2023-03-06T19:22:41.176Z,99001.03
2023-03-06T19:23:26.481Z,98995.69
2023-03-06T19:24:13.620Z,99003.72
2023-03-06T19:24:55.980Z,99000.25
2023-03-06T19:25:38.172Z,98995.25
2023-03-06T19:26:20.722Z,98996.78
2023-03-06T19:27:02.729Z,98999.34
2023-03-06T19:27:46.524Z,98992.38
2023-03-06T19:28:28.773Z,98991.13
2023-03-06T19:29:10.950Z,98994.59
2023-03-06T19:29:53.094Z,98999.97
2023-03-06T19:30:35.266Z,98997.28
2023-03-06T19:31:25.437Z,98996.84
2023-03-06T19:32:08.094Z,98996.19
2023-03-06T19:32:50.325Z,99001.56
2023-03-06T19:33:32.680Z,99002.81
2023-03-06T19:34:14.791Z,99000.13
2023-03-06T19:35:03.913Z,98996.66
2023-03-06T19:35:48.520Z,98997.75
2023-03-06T19:36:33.984Z,98996.19
2023-03-06T19:37:16.486Z,98994.59
2023-03-06T19:37:58.764Z,99004.25
2023-03-06T19:38:41.727Z,98996.50
2023-03-06T19:39:24.623Z,98997.63
2023-03-06T19:40:09.990Z,98999.19
2023-03-06T19:40:52.441Z,98996.50
2023-03-06T19:41:38.046Z,98993.03
2023-03-06T19:42:23.216Z,98997.94
2023-03-06T19:43:05.220Z,98996.03
2023-03-06T19:43:52.483Z,98993.34
2023-03-06T19:44:35.020Z,98996.38
2023-03-06T19:45:17.381Z,98997.81
2023-03-06T19:46:00.824Z,99001.75
2023-03-06T19:46:45.888Z,98996.38
2023-03-06T19:47:28.158Z,99000.97
2023-03-06T19:48:12.563Z,99012.97
2023-03-06T19:49:00.137Z,99010.75
2023-03-06T19:49:42.944Z,99002.06
2023-03-06T19:50:29.882Z,99002.38
2023-03-06T19:51:12.792Z,98999.38
2023-03-06T19:51:54.982Z,98994.78
2023-03-06T19:52:39.512Z,99002.06
2023-03-06T19:53:25.413Z,99005.06
2023-03-06T19:54:10.357Z,99009.31
2023-03-06T19:54:56.171Z,99003.16
2023-03-06T19:55:38.992Z,99000.16
2023-03-06T19:56:26.417Z,99015.94
2023-03-06T19:57:14.247Z,99012.47
2023-03-06T19:57:56.344Z,99001.75
2023-03-06T19:58:38.624Z,99001.56
2023-03-06T19:59:20.854Z,99004.75
2023-03-06T20:00:03.487Z,99003.66
2023-03-06T20:00:45.681Z,99013.25
2023-03-06T20:01:28.803Z,99010.09
2023-03-06T20:02:11.871Z,99011.69
2023-03-06T20:02:53.975Z,99016.25
2023-03-06T20:03:37.243Z,99009.31
2023-03-06T20:04:19.920Z,99020.53
2023-03-06T20:05:02.113Z,99010.09
2023-03-06T20:05:50.793Z,99012.78
2023-03-06T20:06:36.961Z,99002.38
2023-03-06T20:07:23.165Z,99013.44
2023-03-06T20:08:05.528Z,99015.00
2023-03-06T20:08:48.313Z,99008.84
2023-03-06T20:09:33.724Z,99007.75
2023-03-06T20:10:16.094Z,99016.59
2023-03-06T20:10:58.271Z,99006.63
2023-03-06T20:11:40.413Z,99016.91
2023-03-06T20:12:24.921Z,99016.91
2023-03-06T20:13:09.823Z,99010.75
2023-03-06T20:13:53.047Z,99014.56
2023-03-06T20:14:35.381Z,99005.38
2023-03-06T20:15:24.887Z,99016.91
2023-03-06T20:16:10.516Z,99017.69
2023-03-06T20:16:52.755Z,99018.50
2023-03-06T20:17:34.977Z,99021.94
2023-03-06T20:18:17.597Z,99017.69
2023-03-06T20:19:06.207Z,99011.53
2023-03-06T20:19:51.625Z,99020.38
2023-03-06T20:20:33.786Z,99020.38
2023-03-06T20:21:17.205Z,99014.56
2023-03-06T20:21:59.622Z,99027.97
2023-03-06T20:22:41.796Z,99022.91
2023-03-06T20:23:27.532Z,99025.78
2023-03-06T20:24:18.083Z,99024.69
2023-03-06T20:25:00.233Z,99031.13
2023-03-06T20:25:42.602Z,99028.44
2023-03-06T20:26:26.388Z,99025.47
2023-03-06T20:27:11.481Z,99019.31
2023-03-06T20:27:53.632Z,99027.34
2023-03-06T20:28:39.754Z,99027.53
2023-03-06T20:29:22.962Z,99030.66
2023-03-06T20:30:07.884Z,99025.63
2023-03-06T20:30:50.388Z,99031.91
2023-03-06T20:31:32.972Z,99023.88
2023-03-06T20:32:15.171Z,99027.34
2023-03-06T20:32:57.425Z,99027.03
2023-03-06T20:33:45.084Z,99023.56
2023-03-06T20:34:27.280Z,99024.19
2023-03-06T20:35:09.861Z,99028.16
2023-03-06T20:35:52.125Z,99022.16
2023-03-06T20:36:40.763Z,99027.19
2023-03-06T20:37:22.937Z,99023.25
2023-03-06T20:38:08.261Z,99012.22
2023-03-06T20:38:51.105Z,99016.16
2023-03-06T20:39:33.872Z,99023.09
2023-03-06T20:40:16.694Z,99023.88
2023-03-06T20:41:05.371Z,99031.13
2023-03-06T20:41:48.401Z,99021.81
2023-03-06T20:42:30.617Z,99024.84
2023-03-06T20:43:12.824Z,99022.16
2023-03-06T20:43:57.298Z,99025.94
2023-03-06T20:44:39.589Z,99023.91
2023-03-06T20:45:21.730Z,99023.13
2023-03-06T20:46:06.414Z,99031.63
2023-03-06T20:46:49.088Z,99027.84
2023-03-06T20:47:31.670Z,99023.44
2023-03-06T20:48:14.172Z,99021.38
2023-03-06T20:49:00.250Z,99025.31
2023-03-06T20:49:42.571Z,99027.69
2023-03-06T20:50:26.386Z,99023.59
2023-03-06T20:51:16.877Z,99033.50
2023-03-06T20:51:58.857Z,99032.72
2023-03-06T20:52:41.489Z,99021.53
2023-03-06T20:53:23.833Z,99030.06
2023-03-06T20:54:08.873Z,99031.78
2023-03-06T20:54:53.887Z,99031.78
2023-03-06T20:55:38.962Z,99038.41
2023-03-06T20:56:26.278Z,99031.78
2023-03-06T20:57:14.097Z,99033.69
2023-03-06T20:57:59.458Z,99026.28
2023-03-06T20:58:45.398Z,99029.75
2023-03-06T20:59:27.553Z,99030.06
2023-03-06T21:00:11.344Z,99031.16
2023-03-06T21:00:53.445Z,99033.53
2023-03-06T21:01:41.352Z,99032.13
2023-03-06T21:02:26.634Z,99029.91
2023-03-06T21:03:12.797Z,99040.31
2023-03-06T21:03:56.986Z,99037.63
2023-03-06T21:04:41.247Z,99034.63
2023-03-06T21:05:23.610Z,99028.47
2023-03-06T21:06:05.946Z,99038.41
2023-03-06T21:06:49.691Z,99041.91
2023-03-06T21:07:36.556Z,99041.09
2023-03-06T21:08:20.493Z,99038.41
2023-03-06T21:09:05.089Z,99033.84
2023-03-06T21:09:47.961Z,99033.84
2023-03-06T21:10:31.457Z,99037.16
2023-03-06T21:11:14.181Z,99039.84
2023-03-06T21:12:00.586Z,99034.94
2023-03-06T21:12:42.789Z,99037.63
2023-03-06T21:13:24.974Z,99041.91
2023-03-06T21:14:07.229Z,99038.09
2023-03-06T21:14:49.363Z,99032.25
2023-03-06T21:15:31.811Z,99027.06
2023-03-06T21:16:21.120Z,99030.69
2023-03-06T21:17:03.328Z,99031.16
2023-03-06T21:17:48.334Z,99034.63
2023-03-06T21:18:30.613Z,99037.31
2023-03-06T21:19:13.186Z,99037.31
2023-03-06T21:19:57.760Z,99036.53
2023-03-06T21:20:41.213Z,99038.88
2023-03-06T21:21:25.055Z,99035.06
2023-03-06T21:22:10.833Z,99042.84
2023-03-06T21:22:53.020Z,99032.13
2023-03-06T21:23:35.474Z,99039.84
2023-03-06T21:24:18.880Z,99046.31
2023-03-06T21:25:02.133Z,99042.03
2023-03-06T21:25:52.618Z,99040.78
2023-03-06T21:26:36.983Z,99039.66
2023-03-06T21:27:21.106Z,99045.38
2023-03-06T21:28:03.320Z,99037.63
2023-03-06T21:28:45.993Z,99045.03
2023-03-06T21:29:33.868Z,99041.25
2023-03-06T21:30:16.101Z,99039.03
2023-03-06T21:31:20.820Z,99038.25
2023-03-06T21:32:02.990Z,99040.63
2023-03-06T21:32:45.558Z,99045.22
2023-03-06T21:33:27.609Z,99036.84
2023-03-06T21:34:11.646Z,99030.38
2023-03-06T21:34:56.678Z,99037.97
2023-03-06T21:35:40.763Z,99030.53
2023-03-06T21:36:23.589Z,99035.59
2023-03-06T21:37:05.718Z,99039.66
2023-03-06T21:37:48.332Z,99039.34
2023-03-06T21:38:30.642Z,99043.31
2023-03-06T21:39:14.390Z,99042.22
2023-03-06T21:40:00.480Z,99039.03
2023-03-06T21:40:46.017Z,99042.84
2023-03-06T21:41:32.828Z,99034.28
2023-03-06T21:42:17.277Z,99031.31
2023-03-06T21:43:03.710Z,99036.84
2023-03-06T21:43:46.120Z,99036.84
2023-03-06T21:44:28.247Z,99030.84
2023-03-06T21:45:14.179Z,99036.06
2023-03-06T21:46:01.917Z,99040.00
2023-03-06T21:46:44.294Z,99029.28
2023-03-06T21:47:28.956Z,99036.53
2023-03-06T21:48:11.105Z,99036.84
2023-03-06T21:48:54.070Z,99039.53
2023-03-06T21:49:36.229Z,99040.31
2023-03-06T21:50:18.557Z,99040.63
2023-03-06T21:51:13.062Z,99036.06
2023-03-06T21:51:55.557Z,99044.25
2023-03-06T21:52:37.773Z,99041.56
2023-03-06T21:53:19.917Z,99038.44
2023-03-06T21:54:05.569Z,99039.53
2023-03-06T21:54:51.929Z,99038.75
2023-03-06T21:55:37.556Z,99025.63
2023-03-06T21:56:22.670Z,99039.03
2023-03-06T21:57:05.319Z,99027.84
2023-03-06T21:57:57.088Z,99030.53
2023-03-06T21:58:44.370Z,99034.16
2023-03-06T21:59:29.255Z,99038.09
2023-03-06T22:00:14.379Z,99032.44
2023-03-06T22:00:57.613Z,99036.19
2023-03-06T22:01:39.987Z,99042.38
2023-03-06T22:02:22.157Z,99031.16
2023-03-06T22:03:05.127Z,99038.09
2023-03-06T22:03:52.011Z,99043.47
2023-03-06T22:04:35.604Z,99041.91
2023-03-06T22:05:18.350Z,99032.25
2023-03-06T22:06:16.180Z,99042.69
2023-03-06T22:06:58.381Z,99042.69
2023-03-06T22:07:40.578Z,99043.81
2023-03-06T22:08:24.749Z,99047.25
2023-03-06T22:09:07.015Z,99042.69
2023-03-06T22:09:54.444Z,99048.81
2023-03-06T22:10:39.626Z,99049.47
2023-03-06T22:11:26.726Z,99048.22
2023-03-06T22:12:09.066Z,99050.59
2023-03-06T22:12:51.218Z,99054.06
2023-03-06T22:13:33.650Z,99047.09
2023-03-06T22:14:16.140Z,99052.47
2023-03-06T22:14:58.317Z,99050.59
2023-03-06T22:15:48.627Z,99054.53
2023-03-06T22:16:31.109Z,99053.41
2023-03-06T22:17:13.871Z,99056.88
2023-03-06T22:17:56.259Z,99049.16
2023-03-06T22:18:39.200Z,99056.25
2023-03-06T22:19:32.995Z,99056.25
2023-03-06T22:20:15.596Z,99055.13
2023-03-06T22:20:58.056Z,99055.13
2023-03-06T22:21:41.280Z,99049.78
2023-03-06T22:22:25.681Z,99052.47
2023-03-06T22:23:10.286Z,99054.84
2023-03-06T22:23:57.112Z,99056.75
2023-03-06T22:24:39.426Z,99054.84
2023-03-06T22:25:21.528Z,99046.47
2023-03-06T22:26:09.931Z,99052.16
2023-03-06T22:26:54.549Z,99048.69
2023-03-06T22:27:16.835Z,99047.91
2023-03-06T22:27:38.730Z,99051.38
2023-03-06T22:28:00.649Z,99047.91
2023-03-06T22:28:22.536Z,99048.69
2023-03-06T22:28:45.254Z,99046.00
2023-03-06T22:29:07.208Z,99049.16
2023-03-06T22:29:29.165Z,99048.03
2023-03-06T22:29:50.995Z,99045.38
2023-03-06T22:30:13.553Z,99050.25
2023-03-06T22:30:35.286Z,99052.16
2023-03-06T22:31:06.965Z,99054.19
2023-03-06T22:31:29.345Z,99049.63
2023-03-06T22:31:53.651Z,99053.09
2023-03-06T22:32:18.701Z,99044.41
2023-03-06T22:32:46.040Z,99051.06
2023-03-06T22:33:10.496Z,99047.59
2023-03-06T22:33:34.861Z,99050.88
2023-03-06T22:33:58.965Z,99049.31
2023-03-06T22:34:20.784Z,99052.47
2023-03-06T22:34:42.546Z,99053.94
2023-03-06T22:35:11.589Z,99049.03
2023-03-06T22:35:33.493Z,99054.25
2023-03-06T22:36:02.713Z,99045.53
2023-03-06T22:36:33.755Z,99041.94
2023-03-06T22:37:02.384Z,99045.88
2023-03-06T22:37:33.502Z,99044.28
2023-03-06T22:37:58.843Z,99050.13
2023-03-06T22:38:23.398Z,99044.47
2023-03-06T22:38:46.669Z,99042.88
2023-03-06T22:39:08.671Z,99035.63
2023-03-06T22:39:33.591Z,99040.38
2023-03-06T22:39:57.947Z,99041.00
2023-03-06T22:40:20.129Z,99031.06
2023-03-06T22:40:42.153Z,99038.16
2023-03-06T22:41:06.130Z,99035.00
2023-03-06T22:41:33.734Z,99034.81
2023-03-06T22:42:02.646Z,99036.88
2023-03-06T22:42:32.649Z,99040.81
2023-03-06T22:43:00.891Z,99038.31
2023-03-06T22:43:24.334Z,99041.59
2023-03-06T22:43:46.540Z,99039.72
2023-03-06T22:44:17.790Z,99040.84
2023-03-06T22:44:40.121Z,99040.38
2023-03-06T22:45:05.385Z,99040.19
2023-03-06T22:45:30.255Z,99046.03
2023-03-06T22:45:53.499Z,99038.16
2023-03-06T22:46:19.046Z,99044.59
2023-03-06T22:46:41.749Z,99046.34
2023-03-06T22:47:09.775Z,99042.53
2023-03-06T22:47:40.969Z,99048.56
2023-03-06T22:48:10.842Z,99043.97
2023-03-06T22:48:41.508Z,99045.38
2023-03-06T22:49:05.400Z,99041.78
2023-03-06T22:49:27.458Z,99038.91
2023-03-06T22:49:54.302Z,99044.91
2023-03-06T22:50:21.703Z,99037.81
2023-03-06T22:50:44.292Z,99041.75
2023-03-06T22:51:17.625Z,99036.72
2023-03-06T22:51:41.041Z,99037.97
2023-03-06T22:52:03.621Z,99037.34
2023-03-06T22:52:25.692Z,99038.00
2023-03-06T22:52:47.630Z,99038.44
2023-03-06T22:53:09.583Z,99031.38
2023-03-06T22:53:32.852Z,99039.41
2023-03-06T22:53:58.136Z,99031.03
2023-03-06T22:54:20.465Z,99038.59
2023-03-06T22:54:51.012Z,99034.34
2023-03-06T22:55:12.754Z,99025.84
2023-03-06T22:55:35.355Z,99025.72
2023-03-06T22:56:01.925Z,99031.22
2023-03-06T22:56:23.715Z,99023.78
2023-03-06T22:57:07.609Z,99024.13
2023-03-06T22:57:49.828Z,99029.16
2023-03-06T22:58:37.443Z,99025.38
2023-03-06T22:59:17.967Z,99023.78
2023-03-06T22:59:58.759Z,99023.47
2023-03-06T23:00:57.435Z,99023.47
2023-03-06T23:01:43.078Z,99021.38
2023-03-06T23:02:46.447Z,99016.50
2023-03-06T23:03:31.361Z,99017.16
2023-03-06T23:04:14.279Z,99018.41
2023-03-06T23:05:04.125Z,99022.53
2023-03-06T23:05:45.102Z,99020.97
2023-03-06T23:06:36.041Z,99016.06
2023-03-06T23:07:16.719Z,99018.91